Boise, ID

3:11 AM MDT on October 20, 2014 (GMT -0600)
Combes park | Change Station
CLOSE
Current Station
Personal Weather Station
Location: Boise, ID
Elevation: 2648 ft
Nearby Weather Stations

Elev 2648 ft 43.64 °N, 116.33 °W | Updated 18 seconds ago

Clear
Clear
46.4 °F
Feels Like 46 °F
N
0.0
Wind Variable Wind from North
Gusts 0.0 mph

Today
High -- | Low -- °F
--% Chance of Precip.
Yesterday
High -- | Low -- °F
Precip. -- in
8:05 AM 6:53 PM
Waning Crescent, 12% visible
Pressure 29.81 in
Visibility 10.0 miles
Clouds Clear
Windchill 46 °F
Dew Point 41 °F
Humidity 82%
Rainfall 0.00 in
Snow Depth Not available.
UV 0 out of 12
Pollen 3.90 out of 12
Ozone Good
PM2.5 Good
Flu Activity Sporadic
METAR KBOI 200853Z 15010KT 10SM CLR 14/M01 A2987 RMK AO2 SLP093 T01441011 53002

More Conditions Fewer Conditions

Pressure 29.81 in
Visibility 10.0 miles
Clouds Clear
Windchill 46 °F
Dew Point 41 °F
Humidity 82%
Rainfall 0.00 in
Snow Depth Not available.
UV 0 out of 12
Pollen 3.90 out of 12
Ozone Good
PM2.5 Good
Flu Activity Sporadic
METAR KBOI 200853Z 15010KT 10SM CLR 14/M01 A2987 RMK AO2 SLP093 T01441011 53002

More Conditions Fewer Conditions

10-Day Weather Forecast

Almanac

Astronomy

Oct. 20, 2014 Rise Set
Actual Time 8:05 AM MDT 6:53 PM MDT
Civil Twilight 7:36 AM MDT 7:22 PM MDT
Nautical Twilight 7:03 AM MDT 7:56 PM MDT
Astronomical Twilight 6:30 AM MDT 8:29 PM MDT
Moon 4:52 AM MDT 5:23 PM MDT
Length of Visible Light 11h 46m
Length of Day
10h 47m
Waning Crescent, 12% of the Moon is Illuminated
Today
Waning Crescent
Oct 23
New
Oct 30
First Quarter
Nov 6
Full
Nov 14
Last Quarter

Today's Extremes

State Highs State Lows

Community

WunderPhotos

Upload Photos

1,763,316 photos uploaded!

Nearby

Air Quality

  Air Quality AQ Index Pollutant
Yesterday Good
PM10
Yesterday Good
OZONE
Current Good
PM2.5
Current Good
OZONE
Monday Good
OZONE
Tuesday Good
OZONE

Snow Depth

Station Depth Elevation
Bogus Basin 0 in 6340 ft
Trinity Mountain 1 in 7770 ft
Jackson Peak 1 in 7070 ft
Camas Creek Divide 0 in 5710 ft
Atlanta Summit 0 in 7580 ft

Earthquake Activity

City Distance Mag. Time & Date
No recent earthquake activity has been reported nearby.
Minimum magnitude displayed is 2.5.

Coastal Water Temperatures

Place Temperature
No Stations Reporting

Nearby Weather Stations